Somerdale, Ohio
Current Conditions -  °F | °C
As of 7:53 AM on Monday 20 Oct 2014 (Local Time) from KPHD Reporting Station
Overcast Overcast  
Wind Chill: 41°   Ceiling: 11000
Heat Index: 45°   Visibility: 10mi
Dew Point: 39°   Wind: 7mph
Humidity: 80%   Direction: 140°SE
Pressure: 29.99"   Gusts: NA
Location:  40.57°N, 81.36°W
Report Text: KPHD 201153Z AUTO 14006KT 10SM OVC110 07/04 A2999 RMK AO2 SLP159 T00720039 10072 20056 56015
Loading
Personal Weather Stations






























Interactive Weather Map
Tropical Storm Tracking
New forecast layout! Learn more

10-Day Weather Forecast

Advertisements
Track Severe Weather on mobile